createdAt,value
2019-04-22T00:02:10.871Z,77.80
2019-04-22T00:04:50.902Z,77.40
2019-04-22T00:07:28.638Z,78.40
2019-04-22T00:10:09.644Z,77.90
2019-04-22T00:12:41.850Z,77.70
2019-04-22T00:15:03.782Z,76.90
2019-04-22T00:17:50.737Z,78.20
2019-04-22T00:20:08.718Z,78.30
2019-04-22T00:22:38.634Z,77.60
2019-04-22T00:25:18.068Z,77.80
2019-04-22T00:27:51.814Z,78.20
2019-04-22T00:30:18.106Z,79.50
2019-04-22T00:33:07.931Z,78.50
2019-04-22T00:35:41.969Z,77.80
2019-04-22T00:38:17.257Z,80.30
2019-04-22T00:40:45.044Z,79.50
2019-04-22T00:43:16.493Z,79.10
2019-04-22T00:45:44.840Z,79.10
2019-04-22T00:48:20.685Z,79.20
2019-04-22T00:53:31.307Z,79.10
2019-04-22T00:56:13.810Z,80.30
2019-04-22T00:58:42.616Z,79.40
2019-04-22T01:01:17.418Z,79.10
2019-04-22T01:03:51.081Z,79.50
2019-04-22T01:06:16.000Z,79.90
2019-04-22T01:08:53.097Z,79.70
2019-04-22T01:11:24.534Z,79.60
2019-04-22T01:13:50.441Z,79.10
2019-04-22T01:16:26.346Z,79.10
2019-04-22T01:18:49.146Z,79.90
2019-04-22T01:21:28.877Z,80.00
2019-04-22T01:23:52.216Z,79.50
2019-04-22T01:26:25.430Z,78.90
2019-04-22T01:28:53.553Z,80.20
2019-04-22T01:31:19.706Z,81.70
2019-04-22T01:33:58.600Z,80.70
2019-04-22T01:36:35.381Z,79.90
2019-04-22T01:39:13.796Z,80.00
2019-04-22T01:41:48.876Z,80.30
2019-04-22T01:46:51.657Z,79.50
2019-04-22T01:49:17.401Z,80.20
2019-04-22T01:51:58.659Z,80.90
2019-04-22T01:54:22.105Z,80.90
2019-04-22T01:59:15.668Z,81.50
2019-04-22T02:04:32.469Z,81.40
2019-04-22T02:06:57.769Z,80.30
2019-04-22T02:09:31.605Z,81.90
2019-04-22T02:12:00.152Z,80.60
2019-04-22T02:14:34.094Z,81.00
2019-04-22T02:17:04.695Z,81.40
2019-04-22T02:21:59.620Z,81.50
2019-04-22T02:24:39.960Z,81.40
2019-04-22T02:27:13.972Z,81.40
2019-04-22T02:32:28.048Z,81.40
2019-04-22T02:34:50.899Z,81.00
2019-04-22T02:39:52.838Z,84.20
2019-04-22T02:42:23.480Z,85.40
2019-04-22T02:47:20.770Z,84.90
2019-04-22T02:49:53.482Z,86.10
2019-04-22T02:52:26.061Z,84.90
2019-04-22T02:57:35.309Z,85.40
2019-04-22T03:05:12.957Z,85.70
2019-04-22T03:07:31.903Z,85.20
2019-04-22T03:10:16.061Z,84.40
2019-04-22T03:12:28.809Z,83.50
2019-04-22T03:15:05.971Z,83.70
2019-04-22T03:17:41.364Z,84.30
2019-04-22T03:20:11.050Z,84.00
2019-04-22T03:22:40.881Z,83.30
2019-04-22T03:25:42.281Z,84.20
2019-04-22T03:33:09.259Z,87.80
2019-04-22T03:37:50.525Z,85.80
2019-04-22T03:40:30.788Z,84.80
2019-04-22T04:00:35.729Z,84.50
2019-04-22T04:03:00.925Z,83.80
2019-04-22T04:05:37.527Z,83.10
2019-04-22T04:08:03.890Z,83.80
2019-04-22T04:15:29.985Z,83.20
2019-04-22T04:18:06.488Z,83.40
2019-04-22T04:23:19.605Z,83.60
2019-04-22T04:25:46.746Z,83.10
2019-04-22T04:30:42.855Z,83.10
2019-04-22T04:36:02.372Z,82.60
2019-04-22T04:38:42.924Z,82.20
2019-04-22T04:40:55.671Z,82.70
2019-04-22T04:45:55.590Z,83.20
2019-04-22T04:48:32.897Z,83.00
2019-04-22T04:51:11.896Z,83.30
2019-04-22T04:56:03.232Z,82.70
2019-04-22T04:58:55.848Z,84.90
2019-04-22T05:01:03.428Z,83.00
2019-04-22T05:03:45.643Z,83.20
2019-04-22T05:06:10.719Z,83.90
2019-04-22T05:08:52.897Z,84.90
2019-04-22T05:11:05.626Z,82.20
2019-04-22T05:21:14.008Z,84.10
2019-04-22T05:26:18.235Z,82.90
2019-04-22T05:28:42.323Z,84.80
2019-04-22T05:31:16.136Z,81.70
2019-04-22T05:33:42.493Z,83.00
2019-04-22T05:36:14.411Z,82.90
2019-04-22T05:38:52.287Z,83.90
2019-04-22T05:41:15.941Z,83.70
2019-04-22T05:43:50.113Z,82.00
2019-04-22T05:46:20.511Z,83.90
2019-04-22T05:48:56.620Z,84.50
2019-04-22T05:51:25.921Z,82.20
2019-04-22T05:53:53.882Z,82.80
2019-04-22T05:56:33.880Z,82.40
2019-04-22T05:58:59.914Z,83.40
2019-04-22T06:01:38.509Z,81.40
2019-04-22T06:06:45.357Z,82.70
2019-04-22T06:09:03.943Z,83.00
2019-04-22T06:11:32.166Z,81.50
2019-04-22T06:14:00.900Z,84.10
2019-04-22T06:16:44.426Z,82.50
2019-04-22T06:19:13.752Z,82.10
2019-04-22T06:21:42.811Z,84.10
2019-04-22T06:24:27.425Z,85.90
2019-04-22T06:29:22.184Z,84.40
2019-04-22T06:32:11.710Z,85.10
2019-04-22T06:34:27.097Z,84.30
2019-04-22T06:37:01.259Z,83.00
2019-04-22T06:39:27.879Z,85.50
2019-04-22T06:41:58.940Z,83.80
2019-04-22T06:46:56.394Z,81.90
2019-04-22T06:49:33.294Z,80.80
2019-04-22T06:52:04.495Z,81.30
2019-04-22T06:54:32.934Z,79.30
2019-04-22T06:57:02.371Z,82.10
2019-04-22T06:59:34.447Z,79.50
2019-04-22T07:02:11.630Z,81.30
2019-04-22T07:04:33.672Z,80.20
2019-04-22T07:07:06.666Z,79.30
2019-04-22T07:09:41.143Z,82.10
2019-04-22T07:12:15.566Z,80.80
2019-04-22T07:14:42.054Z,79.80
2019-04-22T07:17:15.893Z,83.90
2019-04-22T07:19:45.288Z,79.80
2019-04-22T07:22:18.068Z,84.80
2019-04-22T07:29:56.158Z,79.30
2019-04-22T07:32:39.920Z,81.00
2019-04-22T07:37:31.576Z,79.40
2019-04-22T07:39:50.114Z,84.20
2019-04-22T07:42:32.667Z,81.50
2019-04-22T07:45:04.553Z,76.30
2019-04-22T07:47:34.148Z,79.40
2019-04-22T07:50:07.190Z,81.10
2019-04-22T07:52:33.416Z,82.40
2019-04-22T07:55:04.287Z,82.50
2019-04-22T08:00:09.043Z,77.20
2019-04-22T08:02:46.688Z,79.40
2019-04-22T08:05:24.774Z,81.10
2019-04-22T08:07:45.421Z,75.60
2019-04-22T08:12:47.346Z,78.30
2019-04-22T08:15:12.940Z,74.50
2019-04-22T08:18:00.252Z,75.10
2019-04-22T08:20:18.790Z,75.90
2019-04-22T08:22:50.783Z,73.30
2019-04-22T08:25:16.749Z,75.00
2019-04-22T08:27:51.860Z,71.20
2019-04-22T08:30:28.866Z,70.80
2019-04-22T08:32:53.196Z,72.30
2019-04-22T08:35:29.367Z,71.60
2019-04-22T08:38:02.411Z,72.40
2019-04-22T08:40:29.268Z,73.20
2019-04-22T08:43:05.524Z,72.30
2019-04-22T08:45:36.613Z,70.40
2019-04-22T08:47:57.795Z,74.70
2019-04-22T08:50:33.935Z,72.10
2019-04-22T08:53:12.490Z,70.00
2019-04-22T08:55:38.219Z,72.70
2019-04-22T09:00:46.116Z,68.40
2019-04-22T09:03:10.978Z,70.10
2019-04-22T09:06:01.539Z,69.60
2019-04-22T09:08:15.922Z,63.90
2019-04-22T09:10:44.678Z,67.80
2019-04-22T09:13:20.659Z,73.10
2019-04-22T09:16:02.260Z,71.40
2019-04-22T09:18:26.990Z,64.10
2019-04-22T09:21:04.758Z,67.40
2019-04-22T09:23:26.120Z,65.60
2019-04-22T09:25:53.231Z,64.90
2019-04-22T09:28:24.625Z,64.80
2019-04-22T09:31:01.922Z,67.70
2019-04-22T09:36:09.133Z,67.10
2019-04-22T09:41:06.485Z,62.30
2019-04-22T09:43:40.750Z,61.60
2019-04-22T09:46:10.234Z,61.60
2019-04-22T09:48:44.112Z,62.00
2019-04-22T09:51:05.611Z,59.60
2019-04-22T09:53:51.509Z,62.40
2019-04-22T09:56:10.147Z,64.70
2019-04-22T09:58:44.705Z,59.40
2019-04-22T10:01:22.831Z,64.90
2019-04-22T10:03:51.696Z,65.10
2019-04-22T10:09:08.457Z,61.50
2019-04-22T10:11:26.806Z,74.80
2019-04-22T10:14:01.112Z,67.90
2019-04-22T10:18:59.454Z,64.60
2019-04-22T10:21:35.285Z,60.70
2019-04-22T10:23:58.983Z,59.80
2019-04-22T10:26:33.489Z,59.50
2019-04-22T10:33:53.263Z,62.50
2019-04-22T10:36:28.337Z,59.70
2019-04-22T10:38:58.202Z,62.50
2019-04-22T10:41:28.465Z,59.00
2019-04-22T10:43:59.365Z,59.50
2019-04-22T10:46:30.424Z,59.20
2019-04-22T10:49:00.188Z,65.90
2019-04-22T10:51:30.736Z,64.40
2019-04-22T10:54:01.678Z,59.40
2019-04-22T10:56:32.699Z,60.00
2019-04-22T10:59:02.779Z,56.90
2019-04-22T11:01:33.851Z,59.20
2019-04-22T11:04:04.594Z,57.00
2019-04-22T11:06:42.946Z,61.70
2019-04-22T11:09:08.505Z,62.60
2019-04-22T11:11:46.698Z,57.60
2019-04-22T11:14:10.569Z,60.40
2019-04-22T11:16:41.615Z,59.10
2019-04-22T11:19:11.861Z,62.20
2019-04-22T11:21:41.436Z,58.90
2019-04-22T11:24:10.907Z,56.60
2019-04-22T11:26:41.033Z,56.10
2019-04-22T11:29:11.997Z,59.20
2019-04-22T11:31:42.299Z,60.40
2019-04-22T11:34:13.011Z,55.20
2019-04-22T11:36:43.092Z,55.60
2019-04-22T11:39:14.845Z,55.70
2019-04-22T11:41:46.436Z,55.80
2019-04-22T11:44:17.146Z,56.70
2019-04-22T11:46:47.720Z,54.00
2019-04-22T11:49:18.188Z,53.70
2019-04-22T11:52:22.561Z,56.20
2019-04-22T11:54:52.967Z,54.60
2019-04-22T11:57:23.323Z,56.90
2019-04-22T11:59:54.495Z,56.90
2019-04-22T12:02:27.224Z,52.90
2019-04-22T12:04:58.192Z,51.20
2019-04-22T12:07:31.054Z,51.70
2019-04-22T12:09:59.758Z,50.40
2019-04-22T12:12:29.992Z,51.20
2019-04-22T12:15:00.758Z,53.60
2019-04-22T12:17:32.010Z,51.00
2019-04-22T12:20:04.752Z,52.20
2019-04-22T12:22:33.977Z,51.00
2019-04-22T12:25:06.261Z,52.00
2019-04-22T12:27:36.919Z,54.90
2019-04-22T12:30:09.153Z,52.70
2019-04-22T12:32:39.610Z,50.20
2019-04-22T12:35:09.586Z,48.10
2019-04-22T12:37:45.733Z,50.50
2019-04-22T12:40:13.031Z,50.60
2019-04-22T12:42:42.910Z,52.80
2019-04-22T12:45:13.943Z,50.60
2019-04-22T12:47:44.155Z,52.30
2019-04-22T12:50:22.439Z,50.00
2019-04-22T12:52:53.312Z,49.90
2019-04-22T12:55:19.691Z,49.20
2019-04-22T12:57:53.197Z,50.10
2019-04-22T13:00:20.872Z,50.20
2019-04-22T13:02:51.401Z,47.30
2019-04-22T13:05:22.740Z,49.30
2019-04-22T13:07:53.684Z,46.10
2019-04-22T13:10:24.170Z,48.30
2019-04-22T13:12:55.085Z,49.50
2019-04-22T13:15:26.427Z,47.40
2019-04-22T13:18:05.742Z,47.80
2019-04-22T13:20:28.239Z,50.40
2019-04-22T13:22:58.842Z,49.90
2019-04-22T13:25:30.314Z,50.80
2019-04-22T13:28:01.009Z,47.40
2019-04-22T13:30:32.649Z,49.40
2019-04-22T13:33:02.929Z,46.50
2019-04-22T13:35:33.889Z,46.30
2019-04-22T13:38:04.796Z,45.60
2019-04-22T13:40:34.921Z,47.30
2019-04-22T13:43:04.938Z,47.30
2019-04-22T13:45:36.084Z,46.70
2019-04-22T13:48:24.543Z,46.50
2019-04-22T13:51:08.086Z,49.10
2019-04-22T13:53:45.742Z,44.20
2019-04-22T13:56:05.528Z,46.70
2019-04-22T13:58:24.350Z,47.00
2019-04-22T14:00:42.572Z,46.50
2019-04-22T14:03:46.898Z,46.50
2019-04-22T14:06:16.603Z,50.40
2019-04-22T14:08:47.186Z,46.90
2019-04-22T14:11:27.722Z,46.10
2019-04-22T14:13:48.033Z,45.60
2019-04-22T14:16:19.213Z,43.50
2019-04-22T14:18:49.758Z,44.10
2019-04-22T14:21:21.054Z,46.70
2019-04-22T14:23:50.984Z,47.10
2019-04-22T14:26:20.736Z,45.80
2019-04-22T14:28:50.800Z,48.60
2019-04-22T14:31:20.410Z,47.30
2019-04-22T14:33:54.828Z,47.50
2019-04-22T14:36:21.748Z,45.10
2019-04-22T14:38:52.322Z,45.40
2019-04-22T14:41:40.631Z,46.60
2019-04-22T14:45:07.158Z,48.50
2019-04-22T14:46:56.719Z,43.80
2019-04-22T14:49:17.831Z,47.70
2019-04-22T14:51:49.826Z,47.00
2019-04-22T14:54:15.446Z,45.40
2019-04-22T14:56:30.448Z,45.20
2019-04-22T14:59:00.808Z,44.30
2019-04-22T15:01:30.812Z,48.50
2019-04-22T15:04:00.806Z,47.00
2019-04-22T15:06:31.762Z,47.20
2019-04-22T15:09:01.892Z,46.50
2019-04-22T15:11:43.881Z,50.30
2019-04-22T15:14:03.242Z,49.90
2019-04-22T15:16:40.917Z,51.60
2019-04-22T15:19:32.008Z,50.30
2019-04-22T15:22:02.989Z,50.00
2019-04-22T15:24:32.556Z,50.70
2019-04-22T15:27:02.614Z,50.70
2019-04-22T15:29:33.620Z,49.80
2019-04-22T15:32:03.541Z,49.80
2019-04-22T15:34:34.620Z,52.30
2019-04-22T15:37:04.384Z,47.60
2019-04-22T15:39:34.038Z,50.80
2019-04-22T15:42:11.546Z,48.60
2019-04-22T15:44:35.785Z,48.50
2019-04-22T15:47:06.874Z,48.80
2019-04-22T15:49:38.143Z,48.40
2019-04-22T15:52:08.061Z,49.60
2019-04-22T15:54:39.341Z,52.50
2019-04-22T15:57:10.815Z,53.10
2019-04-22T15:59:57.799Z,53.30
2019-04-22T16:02:13.884Z,50.90
2019-04-22T16:04:44.529Z,51.10
2019-04-22T16:07:14.827Z,53.60
2019-04-22T16:09:45.725Z,55.20
2019-04-22T16:12:22.453Z,52.00
2019-04-22T16:14:52.649Z,52.60
2019-04-22T16:17:18.794Z,52.70
2019-04-22T16:19:49.071Z,53.90
2019-04-22T16:22:21.141Z,52.80
2019-04-22T16:25:11.413Z,52.80
2019-04-22T16:27:42.805Z,54.40
2019-04-22T16:30:23.547Z,54.30
2019-04-22T16:33:03.359Z,53.80
2019-04-22T16:35:33.085Z,52.80
2019-04-22T16:38:02.714Z,55.10
2019-04-22T16:40:32.640Z,55.50
2019-04-22T16:43:04.797Z,54.40
2019-04-22T16:45:34.060Z,52.30
2019-04-22T16:48:04.161Z,52.70
2019-04-22T16:50:35.659Z,53.40
2019-04-22T16:53:06.086Z,53.70
2019-04-22T16:55:36.822Z,55.40
2019-04-22T16:58:07.451Z,56.30
2019-04-22T17:00:38.493Z,56.70
2019-04-22T17:03:46.748Z,55.70
2019-04-22T17:06:19.465Z,56.60
2019-04-22T17:08:50.713Z,54.80
2019-04-22T17:11:22.037Z,54.50
2019-04-22T17:13:53.054Z,55.60
2019-04-22T17:16:24.373Z,53.60
2019-04-22T17:18:54.268Z,57.20
2019-04-22T17:21:25.677Z,57.10
2019-04-22T17:23:55.955Z,54.60
2019-04-22T17:26:26.483Z,55.60
2019-04-22T17:28:57.648Z,57.20
2019-04-22T17:31:27.294Z,56.90
2019-04-22T17:33:57.266Z,57.20
2019-04-22T17:36:27.121Z,57.20
2019-04-22T17:39:13.516Z,57.80
2019-04-22T17:41:53.995Z,59.00
2019-04-22T17:44:40.054Z,58.20
2019-04-22T17:47:23.589Z,59.60
2019-04-22T17:50:07.284Z,58.40
2019-04-22T17:52:32.869Z,57.90
2019-04-22T17:54:59.021Z,58.40
2019-04-22T17:57:47.804Z,58.60
2019-04-22T18:00:06.883Z,57.30
2019-04-22T18:02:32.251Z,60.00
2019-04-22T18:04:56.189Z,61.60
2019-04-22T18:07:39.184Z,60.20
2019-04-22T18:10:27.174Z,59.90
2019-04-22T18:12:53.161Z,60.00
2019-04-22T18:15:16.335Z,59.70
2019-04-22T18:17:49.506Z,59.80
2019-04-22T18:20:14.374Z,59.30
2019-04-22T18:22:39.599Z,58.20
2019-04-22T18:25:12.978Z,57.60
2019-04-22T18:27:55.093Z,57.50
2019-04-22T18:30:17.882Z,60.00
2019-04-22T18:32:53.619Z,59.00
2019-04-22T18:35:20.971Z,59.00
2019-04-22T18:38:07.664Z,58.80
2019-04-22T18:40:30.560Z,58.30
2019-04-22T18:43:06.623Z,60.00
2019-04-22T18:47:54.028Z,60.80
2019-04-22T18:50:45.265Z,62.20
2019-04-22T18:53:48.348Z,60.50
2019-04-22T18:56:13.853Z,63.50
2019-04-22T18:58:34.419Z,61.70
2019-04-22T19:00:53.269Z,63.10
2019-04-22T19:03:29.516Z,63.90
2019-04-22T19:06:24.792Z,63.50
2019-04-22T19:08:53.652Z,63.90
2019-04-22T19:11:16.625Z,63.50
2019-04-22T19:14:05.975Z,64.20
2019-04-22T19:16:30.988Z,63.80
2019-04-22T19:19:17.255Z,64.20
2019-04-22T19:21:45.281Z,64.10
2019-04-22T19:23:54.433Z,64.80
2019-04-22T19:26:35.823Z,65.00
2019-04-22T19:29:03.812Z,64.70
2019-04-22T19:31:28.537Z,65.10
2019-04-22T19:34:03.298Z,64.80
2019-04-22T19:36:35.596Z,64.60
2019-04-22T19:38:59.268Z,64.80
2019-04-22T19:41:36.270Z,64.80
2019-04-22T19:44:10.491Z,62.30
2019-04-22T19:46:34.538Z,64.30
2019-04-22T19:49:21.968Z,64.10
2019-04-22T19:54:15.692Z,63.70
2019-04-22T19:56:36.715Z,63.90
2019-04-22T19:59:12.281Z,63.40
2019-04-22T20:02:00.987Z,64.50
2019-04-22T20:05:02.858Z,63.30
2019-04-22T20:07:38.119Z,64.20
2019-04-22T20:10:17.239Z,63.80
2019-04-22T20:12:42.465Z,63.80
2019-04-22T20:15:14.246Z,62.50
2019-04-22T20:18:07.291Z,62.50
2019-04-22T20:20:22.794Z,63.10
2019-04-22T20:22:44.028Z,62.60
2019-04-22T20:25:07.517Z,61.60
2019-04-22T20:27:54.761Z,62.20
2019-04-22T20:30:23.487Z,61.50
2019-04-22T20:32:51.147Z,61.00
2019-04-22T20:35:28.067Z,61.50
2019-04-22T20:37:56.778Z,61.00
2019-04-22T20:40:31.234Z,60.90
2019-04-22T20:43:26.813Z,60.80
2019-04-22T20:45:36.252Z,61.30
2019-04-22T20:47:56.661Z,62.00
2019-04-22T20:50:34.683Z,61.70
2019-04-22T20:53:11.880Z,62.50
2019-04-22T20:55:36.543Z,61.90
2019-04-22T20:58:11.739Z,61.70
2019-04-22T21:00:31.207Z,62.80
2019-04-22T21:02:59.856Z,63.30
2019-04-22T21:05:33.950Z,64.10
2019-04-22T21:08:13.466Z,61.70
2019-04-22T21:10:42.753Z,62.80
2019-04-22T21:13:12.057Z,63.60
2019-04-22T21:15:53.153Z,61.70
2019-04-22T21:18:13.587Z,62.20
2019-04-22T21:20:49.512Z,62.60
2019-04-22T21:23:23.128Z,62.90
2019-04-22T21:25:57.250Z,62.20
2019-04-22T21:28:25.900Z,62.60
2019-04-22T21:30:59.687Z,62.80
2019-04-22T21:33:19.524Z,62.80
2019-04-22T21:36:11.788Z,64.30
2019-04-22T21:38:35.899Z,63.70
2019-04-22T21:41:08.403Z,63.90
2019-04-22T21:43:38.582Z,63.40
2019-04-22T21:46:09.112Z,63.40
2019-04-22T21:48:44.353Z,65.20
2019-04-22T21:51:10.848Z,65.30
2019-04-22T21:53:50.402Z,64.60
2019-04-22T21:56:31.255Z,64.30
2019-04-22T21:58:51.141Z,64.00
2019-04-22T22:01:44.689Z,65.20
2019-04-22T22:04:09.700Z,65.70
2019-04-22T22:06:25.870Z,65.20
2019-04-22T22:09:13.426Z,66.60
2019-04-22T22:11:35.729Z,65.60
2019-04-22T22:14:07.679Z,67.30
2019-04-22T22:16:34.937Z,67.10
2019-04-22T22:19:10.984Z,67.80
2019-04-22T22:24:18.052Z,68.70
2019-04-22T22:26:46.523Z,67.90
2019-04-22T22:29:31.844Z,68.40
2019-04-22T22:31:56.415Z,68.20
2019-04-22T22:34:19.471Z,69.70
2019-04-22T22:36:45.097Z,69.50
2019-04-22T22:39:14.704Z,68.60
2019-04-22T22:41:31.997Z,70.30
2019-04-22T22:44:10.286Z,69.90
2019-04-22T22:46:43.751Z,70.70
2019-04-22T22:49:28.463Z,70.10
2019-04-22T22:52:09.991Z,70.60
2019-04-22T22:54:30.166Z,70.10
2019-04-22T22:57:00.382Z,70.60
2019-04-22T22:59:37.206Z,70.50
2019-04-22T23:02:00.172Z,71.20
2019-04-22T23:04:34.198Z,70.60
2019-04-22T23:07:15.116Z,70.70
2019-04-22T23:09:36.685Z,70.70
2019-04-22T23:12:12.184Z,71.60
2019-04-22T23:14:36.994Z,71.20
2019-04-22T23:16:57.306Z,71.10
2019-04-22T23:19:19.967Z,70.10
2019-04-22T23:21:54.385Z,70.30
2019-04-22T23:25:21.440Z,71.40
2019-04-22T23:27:50.307Z,70.20
2019-04-22T23:30:25.458Z,71.40
2019-04-22T23:33:07.508Z,71.00
2019-04-22T23:35:41.112Z,70.50
2019-04-22T23:38:10.790Z,70.80
2019-04-22T23:40:47.870Z,70.40
2019-04-22T23:45:53.309Z,70.20
2019-04-22T23:48:20.611Z,71.80
2019-04-22T23:50:57.429Z,71.40
2019-04-22T23:54:13.068Z,76.40
2019-04-22T23:56:06.228Z,72.00
